| time (UTC) | temp F | wind direction | speed MPH | gust MPH | rain 1hr in | rain 24hr in | rain mn in | humidity % | barometer mb |
| 20260503035929 | 53 | 147 | 0.0 | 0.0 | 0.00 | 0.04 | 0.04 | 88 | 1016.5 |
| 20260503035426 | 53 | 147 | 0.0 | 0.0 | 0.00 | 0.04 | 0.04 | 87 | 1016.6 |
| 20260503034923 | 54 | 147 | 0.0 | 0.0 | 0.05 | 0.04 | 0.04 | 86 | 1016.8 |
| 20260503034421 | 54 | 150 | 0.0 | 0.0 | 0.00 | 0.03 | 0.03 | 85 | 1016.8 |
| 20260503033918 | 54 | 150 | 0.0 | 0.0 | 0.00 | 0.03 | 0.03 | 82 | 1017.1 |
| 20260503033415 | 55 | 152 | 0.0 | 0.0 | 0.00 | 0.03 | 0.03 | 81 | 1017.0 |
| 20260503032913 | 55 | 153 | 0.0 | 0.0 | 0.07 | 0.03 | 0.03 | 80 | 1017.1 |
| 20260503032412 | 56 | 147 | 0.0 | 0.0 | 0.07 | 0.03 | 0.03 | 79 | 1017.1 |
| 20260503031909 | 56 | 146 | 0.0 | 0.0 | 0.07 | 0.02 | 0.02 | 77 | 1016.9 |
| 20260503031406 | 57 | 146 | 0.0 | 0.0 | 0.00 | 0.01 | 0.01 | 75 | 1017.0 |
| 20260503030903 | 57 | 152 | 0.0 | 0.0 | 0.00 | 0.01 | 0.01 | 70 | 1017.0 |
| 20260503030359 | 58 | 147 | 0.0 | 0.0 | 0.00 | 0.01 | 0.01 | 67 | 1017.3 |
| 20260503025855 | 58 | 142 | 0.0 | 0.0 | 0.00 | 0.01 | 0.01 | 62 | 1016.9 |
| 20260503025353 | 58 | 147 | 0.0 | 0.0 | 0.00 | 0.01 | 0.01 | 62 | 1016.4 |
| 20260503024850 | 58 | 147 | 0.0 | 0.0 | 0.00 | 0.01 | 0.01 | 62 | 1016.5 |
| 20260503024346 | 59 | 156 | 0.0 | 0.0 | 0.00 | 0.01 | 0.01 | 61 | 1016.5 |
| 20260503023843 | 59 | 171 | 0.0 | 0.0 | 0.00 | 0.01 | 0.01 | 60 | 1016.1 |
| 20260503023341 | 59 | 156 | 0.0 | 0.0 | 0.00 | 0.01 | 0.01 | 61 | 1015.8 |
| 20260503022838 | 59 | 212 | 0.0 | 1.0 | 0.00 | 0.01 | 0.01 | 60 | 1016.1 |
| 20260503022338 | 59 | 174 | 0.0 | 0.0 | 0.00 | 0.01 | 0.01 | 61 | 1015.6 |
| 20260503021835 | 59 | 181 | 1.0 | 2.0 | 0.00 | 0.01 | 0.01 | 61 | 1015.8 |
| 20260503021331 | 59 | 162 | 0.0 | 0.0 | 0.00 | 0.01 | 0.01 | 61 | 1015.5 |
| 20260503020828 | 59 | 147 | 0.0 | 0.0 | 0.00 | 0.01 | 0.01 | 62 | 1015.4 |
| 20260503020326 | 59 | 148 | 0.0 | 0.0 | 0.00 | 0.01 | 0.01 | 61 | 1015.5 |
| 20260503015822 | 59 | 168 | 0.0 | 0.0 | 0.00 | 0.01 | 0.01 | 61 | 1015.7 |
| 20260503015319 | 60 | 153 | 0.0 | 1.0 | 0.00 | 0.01 | 0.01 | 60 | 1015.5 |
| 20260503014815 | 60 | 145 | 0.0 | 0.0 | 0.00 | 0.01 | 0.01 | 60 | 1015.4 |
| 20260503014313 | 60 | 1 | 0.0 | 1.0 | 0.00 | 0.01 | 0.01 | 60 | 1015.5 |
| 20260503013810 | 61 | 143 | 0.0 | 0.0 | 0.00 | 0.01 | 0.01 | 60 | 1015.4 |
| 20260503013308 | 61 | 174 | 0.0 | 0.0 | 0.00 | 0.01 | 0.01 | 59 | 1015.5 |
| 20260503012804 | 62 | 164 | 0.0 | 0.0 | 0.00 | 0.01 | 0.01 | 57 | 1015.4 |
| 20260503012305 | 62 | 148 | 0.0 | 0.0 | 0.00 | 0.01 | 0.01 | 58 | 1015.5 |
| 20260503011758 | 62 | 146 | 0.0 | 0.0 | 0.00 | 0.01 | 0.01 | 59 | 1015.3 |
| 20260503011255 | 62 | 145 | 0.0 | 0.0 | 0.00 | 0.01 | 0.01 | 61 | 1015.4 |
| 20260503010752 | 62 | 161 | 0.0 | 0.0 | 0.00 | 0.01 | 0.01 | 56 | 1015.4 |
| 20260503010249 | 62 | 147 | 0.0 | 0.0 | 0.00 | 0.01 | 0.01 | 59 | 1015.4 |
| 20260503005746 | 60 | 183 | 0.0 | 1.0 | 0.00 | 0.01 | 0.01 | 60 | 1015.5 |
| 20260503005243 | 60 | 146 | 0.0 | 0.0 | 0.00 | 0.01 | 0.01 | 59 | 1015.3 |
| 20260503004739 | 60 | 155 | 0.0 | 0.0 | 0.00 | 0.01 | 0.01 | 61 | 1015.5 |
| 20260503004237 | 59 | 80 | 0.0 | 1.0 | 0.00 | 0.01 | 0.01 | 61 | 1015.5 |
| 20260503003734 | 59 | 162 | 0.0 | 1.0 | 0.00 | 0.01 | 0.01 | 65 | 1016.0 |
| 20260503003231 | 59 | 148 | 0.0 | 0.0 | 0.05 | 0.01 | 0.01 | 65 | 1015.7 |
| 20260503002728 | 59 | 143 | 0.0 | 0.0 | 0.05 | 0.01 | 0.01 | 64 | 1015.7 |
| 20260503002225 | 60 | 113 | 0.0 | 1.0 | 0.00 | 0.00 | 0.00 | 66 | 1015.3 |
| 20260503001721 | 64 | 107 | 0.0 | 1.0 | 0.00 | 0.00 | 0.00 | 56 | 1015.0 |
| 20260503001218 | 66 | 109 | 2.0 | 3.0 | 0.00 | 0.00 | 0.00 | 40 | 1014.8 |
| 20260503000716 | 67 | 115 | 0.0 | 1.0 | 0.00 | 0.00 | 0.00 | 36 | 1014.5 |
| 20260503000213 | 68 | 138 | 0.0 | 0.0 | 0.00 | 0.00 | 0.00 | 34 | 1014.4 |
| 20260502235710 | 67 | 75 | 0.0 | 1.0 | 0.00 | 0.00 | 0.00 | 33 | 1014.0 |
| 20260502235208 | 67 | 197 | 0.0 | 0.0 | 0.00 | 0.00 | 0.00 | 35 | 1014.0 |
| 20260502234703 | 67 | 149 | 0.0 | 0.0 | 0.00 | 0.00 | 0.00 | 37 | 1014.4 |
| 20260502234201 | 67 | 150 | 0.0 | 0.0 | 0.00 | 0.00 | 0.00 | 37 | 1014.4 |
| 20260502233656 | 67 | 145 | 0.0 | 0.0 | 0.00 | 0.00 | 0.00 | 39 | 1014.4 |
| 20260502233154 | 66 | 133 | 0.0 | 0.0 | 0.00 | 0.00 | 0.00 | 42 | 1014.6 |
| 20260502232649 | 67 | 152 | 0.0 | 0.0 | 0.00 | 0.00 | 0.00 | 51 | 1014.6 |
| 20260502232147 | 70 | 115 | 0.0 | 0.0 | 0.00 | 0.00 | 0.00 | 31 | 1014.4 |
| 20260502231643 | 71 | 140 | 0.0 | 1.0 | 0.00 | 0.00 | 0.00 | 30 | 1014.4 |
| 20260502231141 | 71 | 154 | 0.0 | 0.0 | 0.00 | 0.00 | 0.00 | 29 | 1014.1 |
| 20260502230640 | 72 | 157 | 0.0 | 0.0 | 0.00 | 0.00 | 0.00 | 30 | 1014.2 |
| 20260502230138 | 72 | 158 | 0.0 | 1.0 | 0.00 | 0.00 | 0.00 | 28 | 1014.0 |
| 20260502225633 | 72 | 155 | 0.0 | 0.0 | 0.00 | 0.00 | 0.00 | 30 | 1014.1 |
| 20260502225131 | 72 | 169 | 0.0 | 0.0 | 0.00 | 0.00 | 0.00 | 28 | 1014.0 |
| 20260502224626 | 72 | 197 | 0.0 | 0.0 | 0.00 | 0.00 | 0.00 | 28 | 1014.6 |
| 20260502224123 | 72 | 203 | 1.0 | 1.0 | 0.00 | 0.00 | 0.00 | 28 | 1014.2 |
| 20260502223621 | 72 | 177 | 0.0 | 2.0 | 0.00 | 0.00 | 0.00 | 29 | 1014.7 |
| 20260502223119 | 72 | 198 | 1.0 | 1.0 | 0.00 | 0.00 | 0.00 | 28 | 1014.6 |
| 20260502222617 | 73 | 176 | 0.0 | 0.0 | 0.00 | 0.00 | 0.00 | 28 | 1014.5 |
| 20260502222112 | 72 | 214 | 0.0 | 0.0 | 0.00 | 0.00 | 0.00 | 29 | 1014.8 |
| 20260502221608 | 71 | 172 | 0.0 | 0.0 | 0.00 | 0.00 | 0.00 | 31 | 1014.6 |
| 20260502221106 | 71 | 177 | 0.0 | 1.0 | 0.00 | 0.00 | 0.00 | 30 | 1014.7 |
| 20260502220602 | 71 | 172 | 0.0 | 1.0 | 0.00 | 0.00 | 0.00 | 30 | 1014.8 |
| 20260502220058 | 71 | 198 | 0.0 | 0.0 | 0.00 | 0.00 | 0.00 | 30 | 1015.0 |
| 20260502215555 | 71 | 170 | 0.0 | 0.0 | 0.00 | 0.00 | 0.00 | 30 | 1014.9 |
| 20260502215052 | 70 | 170 | 0.0 | 0.0 | 0.00 | 0.00 | 0.00 | 29 | 1015.2 |
| 20260502214549 | 71 | 152 | 0.0 | 0.0 | 0.00 | 0.00 | 0.00 | 28 | 1015.3 |
| 20260502214047 | 70 | 197 | 0.0 | 0.0 | 0.00 | 0.00 | 0.00 | 27 | 1015.5 |
| 20260502213543 | 70 | 176 | 0.0 | 1.0 | 0.00 | 0.00 | 0.00 | 27 | 1015.3 |
| 20260502213041 | 71 | 193 | 0.0 | 0.0 | 0.00 | 0.00 | 0.00 | 28 | 1015.2 |
| 20260502212540 | 71 | 161 | 1.0 | 1.0 | 0.00 | 0.00 | 0.00 | 27 | 1015.4 |
| 20260502212037 | 71 | 185 | 1.0 | 2.0 | 0.00 | 0.00 | 0.00 | 27 | 1015.5 |
| 20260502211532 | 71 | 171 | 1.0 | 2.0 | 0.00 | 0.00 | 0.00 | 27 | 1015.7 |
| 20260502211030 | 71 | 146 | 1.0 | 1.0 | 0.00 | 0.00 | 0.00 | 29 | 1015.6 |
| 20260502210527 | 71 | 164 | 0.0 | 0.0 | 0.00 | 0.00 | 0.00 | 28 | 1015.5 |
| 20260502210024 | 71 | 143 | 0.0 | 0.0 | 0.00 | 0.00 | 0.00 | 28 | 1015.3 |
| 20260502205521 | 71 | 164 | 0.0 | 0.0 | 0.00 | 0.00 | 0.00 | 29 | 1015.5 |
| 20260502205018 | 71 | 192 | 0.0 | 0.0 | 0.00 | 0.00 | 0.00 | 29 | 1015.8 |
| 20260502204515 | 72 | 187 | 0.0 | 0.0 | 0.00 | 0.00 | 0.00 | 30 | 1015.5 |
| 20260502204013 | 72 | 198 | 0.0 | 0.0 | 0.00 | 0.00 | 0.00 | 29 | 1015.7 |
| 20260502203509 | 73 | 172 | 0.0 | 0.0 | 0.00 | 0.00 | 0.00 | 28 | 1015.6 |
| 20260502203006 | 72 | 144 | 0.0 | 0.0 | 0.00 | 0.00 | 0.00 | 29 | 1015.6 |
| 20260502202502 | 72 | 214 | 0.0 | 1.0 | 0.00 | 0.00 | 0.00 | 28 | 1015.7 |
| 20260502202001 | 72 | 171 | 0.0 | 0.0 | 0.00 | 0.00 | 0.00 | 27 | 1015.8 |
| 20260502201456 | 72 | 164 | 0.0 | 1.0 | 0.00 | 0.00 | 0.00 | 27 | 1015.7 |
| 20260502200953 | 73 | 156 | 0.0 | 0.0 | 0.00 | 0.00 | 0.00 | 27 | 1015.7 |
| 20260502200449 | 73 | 158 | 0.0 | 0.0 | 0.00 | 0.00 | 0.00 | 29 | 1016.2 |
| 20260502195947 | 73 | 195 | 0.0 | 0.0 | 0.00 | 0.00 | 0.00 | 29 | 1015.8 |
| 20260502195444 | 75 | 137 | 0.0 | 0.0 | 0.00 | 0.00 | 0.00 | 25 | 1016.1 |
| 20260502194940 | 74 | 148 | 0.0 | 0.0 | 0.00 | 0.00 | 0.00 | 26 | 1016.0 |
| 20260502194437 | 74 | 166 | 0.0 | 0.0 | 0.00 | 0.00 | 0.00 | 28 | 1016.0 |
| 20260502193932 | 73 | 178 | 0.0 | 0.0 | 0.00 | 0.00 | 0.00 | 27 | 1016.0 |
| 20260502193430 | 73 | 124 | 0.0 | 0.0 | 0.00 | 0.00 | 0.00 | 26 | 1016.0 |
| 20260502192925 | 74 | 224 | 0.0 | 1.0 | 0.00 | 0.00 | 0.00 | 26 | 1016.0 |
| 20260502192423 | 74 | 254 | 0.0 | 1.0 | 0.00 | 0.00 | 0.00 | 25 | 1016.3 |
| 20260502191920 | 74 | 161 | 0.0 | 0.0 | 0.00 | 0.00 | 0.00 | 26 | 1016.2 |
| 20260502191418 | 75 | 221 | 0.0 | 2.0 | 0.00 | 0.00 | 0.00 | 27 | 1016.2 |
| 20260502190915 | 75 | 170 | 2.0 | 2.0 | 0.00 | 0.00 | 0.00 | 24 | 1016.2 |
| 20260502190412 | 76 | 149 | 0.0 | 0.0 | 0.00 | 0.00 | 0.00 | 28 | 1016.2 |
| 20260502185908 | 75 | 93 | 0.0 | 1.0 | 0.00 | 0.00 | 0.00 | 25 | 1016.2 |
| 20260502185403 | 78 | 151 | 0.0 | 0.0 | 0.00 | 0.00 | 0.00 | 26 | 1016.2 |
| 20260502184901 | 77 | 152 | 0.0 | 0.0 | 0.00 | 0.00 | 0.00 | 27 | 1016.4 |
| 20260502184356 | 75 | 141 | 0.0 | 0.0 | 0.00 | 0.00 | 0.00 | 27 | 1016.2 |
| 20260502183853 | 73 | 151 | 0.0 | 0.0 | 0.00 | 0.00 | 0.00 | 31 | 1016.2 |
| 20260502183349 | 71 | 150 | 0.0 | 0.0 | 0.00 | 0.00 | 0.00 | 31 | 1016.5 |
| 20260502182844 | 72 | 154 | 0.0 | 0.0 | 0.00 | 0.00 | 0.00 | 34 | 1016.4 |
| 20260502182340 | 70 | 150 | 0.0 | 0.0 | 0.00 | 0.00 | 0.00 | 34 | 1016.8 |
| 20260502181837 | 70 | 157 | 0.0 | 0.0 | 0.00 | 0.00 | 0.00 | 32 | 1016.8 |
| 20260502181336 | 71 | 174 | 0.0 | 0.0 | 0.00 | 0.00 | 0.00 | 32 | 1016.5 |
| 20260502180833 | 72 | 101 | 0.0 | 0.0 | 0.00 | 0.00 | 0.00 | 31 | 1016.8 |
| 20260502180330 | 71 | 146 | 0.0 | 0.0 | 0.00 | 0.00 | 0.00 | 32 | 1016.9 |
| 20260502170249 | 66 | 144 | 0.0 | 0.0 | 0.00 | 0.00 | 0.00 | 37 | 1017.2 |
| 20260502164236 | 65 | 145 | 0.0 | 0.0 | 0.00 | 0.00 | 0.00 | 35 | 1017.2 |
| 20260502163732 | 64 | 148 | 0.0 | 0.0 | 0.00 | 0.00 | 0.00 | 38 | 1017.2 |
| 20260502163229 | 63 | 143 | 0.0 | 0.0 | 0.00 | 0.00 | 0.00 | 35 | 1017.2 |
| 20260502162726 | 63 | 151 | 0.0 | 0.0 | 0.00 | 0.00 | 0.00 | 37 | 1017.2 |
| 20260502162222 | 63 | 152 | 0.0 | 0.0 | 0.00 | 0.00 | 0.00 | 37 | 1017.0 |
| 20260502161720 | 60 | 150 | 0.0 | 0.0 | 0.00 | 0.00 | 0.00 | 40 | 1017.1 |
| 20260502161216 | 60 | 151 | 0.0 | 0.0 | 0.00 | 0.00 | 0.00 | 41 | 1017.2 |
| 20260502160714 | 59 | 146 | 0.0 | 0.0 | 0.00 | 0.00 | 0.00 | 40 | 1017.2 |
| 20260502160213 | 59 | 151 | 0.0 | 0.0 | 0.00 | 0.00 | 0.00 | 39 | 1017.1 |
| 20260502152132 | 57 | 151 | 0.0 | 0.0 | 0.00 | 0.00 | 0.00 | 50 | 1017.2 |
| 20260502151630 | 56 | 152 | 0.0 | 0.0 | 0.00 | 0.00 | 0.00 | 50 | 1017.3 |
| 20260502151126 | 54 | 152 | 0.0 | 0.0 | 0.00 | 0.00 | 0.00 | 52 | 1017.5 |
| 20260502150624 | 53 | 153 | 0.0 | 0.0 | 0.00 | 0.00 | 0.00 | 55 | 1017.4 |
| 20260502150120 | 52 | 153 | 0.0 | 0.0 | 0.00 | 0.00 | 0.00 | 55 | 1017.4 |
| 20260502130509 | 44 | 140 | 0.0 | 0.0 | 0.00 | 0.00 | 0.00 | 66 | 1016.6 |
| 20260502123451 | 44 | 140 | 0.0 | 0.0 | 0.00 | 0.00 | 0.00 | 64 | 1016.8 |
| 20260502122948 | 44 | 140 | 0.0 | 0.0 | 0.00 | 0.00 | 0.00 | 64 | 1016.3 |
| 20260502122444 | 44 | 140 | 0.0 | 0.0 | 0.00 | 0.00 | 0.00 | 64 | 1016.5 |
| 20260502121943 | 44 | 140 | 0.0 | 0.0 | 0.00 | 0.00 | 0.00 | 63 | 1016.5 |
| 20260502121440 | 44 | 140 | 0.0 | 0.0 | 0.00 | 0.00 | 0.00 | 61 | 1016.3 |
| 20260502120937 | 45 | 140 | 0.0 | 0.0 | 0.00 | 0.00 | 0.00 | 62 | 1016.2 |
| 20260502120433 | 45 | 140 | 0.0 | 0.0 | 0.00 | 0.00 | 0.00 | 62 | 1016.4 |
| 20260502115930 | 45 | 140 | 0.0 | 0.0 | 0.00 | 0.00 | 0.00 | 61 | 1016.2 |
| 20260502115428 | 45 | 140 | 0.0 | 0.0 | 0.00 | 0.00 | 0.00 | 61 | 1016.4 |
| 20260502114923 | 45 | 140 | 0.0 | 0.0 | 0.00 | 0.00 | 0.00 | 60 | 1016.3 |
| 20260502114421 | 45 | 140 | 0.0 | 0.0 | 0.00 | 0.00 | 0.00 | 59 | 1016.4 |
| 20260502113918 | 45 | 140 | 0.0 | 0.0 | 0.00 | 0.00 | 0.00 | 58 | 1016.4 |
| 20260502113416 | 46 | 140 | 0.0 | 0.0 | 0.00 | 0.00 | 0.00 | 59 | 1016.4 |
| 20260502112914 | 46 | 140 | 0.0 | 0.0 | 0.00 | 0.00 | 0.00 | 58 | 1016.3 |
| 20260502112411 | 46 | 140 | 0.0 | 0.0 | 0.00 | 0.00 | 0.00 | 57 | 1016.5 |
| 20260502111908 | 46 | 140 | 0.0 | 0.0 | 0.00 | 0.00 | 0.00 | 59 | 1016.3 |
| 20260502111405 | 46 | 140 | 0.0 | 0.0 | 0.00 | 0.00 | 0.00 | 56 | 1016.5 |
| 20260502110903 | 46 | 140 | 0.0 | 0.0 | 0.00 | 0.00 | 0.00 | 54 | 1016.3 |
| 20260502110401 | 46 | 140 | 0.0 | 0.0 | 0.00 | 0.00 | 0.00 | 51 | 1016.2 |
| 20260502105858 | 46 | 140 | 0.0 | 0.0 | 0.00 | 0.00 | 0.00 | 53 | 1016.2 |
| 20260502105354 | 46 | 141 | 0.0 | 0.0 | 0.00 | 0.00 | 0.00 | 53 | 1016.2 |
| 20260502104852 | 47 | 141 | 0.0 | 0.0 | 0.00 | 0.00 | 0.00 | 53 | 1016.5 |
| 20260502104350 | 47 | 141 | 0.0 | 0.0 | 0.00 | 0.00 | 0.00 | 53 | 1016.3 |
| 20260502103847 | 47 | 141 | 0.0 | 0.0 | 0.00 | 0.00 | 0.00 | 52 | 1016.4 |
| 20260502103344 | 48 | 141 | 0.0 | 0.0 | 0.00 | 0.00 | 0.00 | 53 | 1016.0 |
| 20260502102841 | 48 | 140 | 0.0 | 0.0 | 0.00 | 0.00 | 0.00 | 52 | 1016.1 |
| 20260502102337 | 48 | 141 | 0.0 | 0.0 | 0.00 | 0.00 | 0.00 | 52 | 1016.3 |
| 20260502101835 | 48 | 141 | 0.0 | 0.0 | 0.00 | 0.00 | 0.00 | 53 | 1016.3 |
| 20260502101333 | 48 | 141 | 0.0 | 0.0 | 0.00 | 0.00 | 0.00 | 54 | 1016.1 |
| 20260502100831 | 47 | 141 | 0.0 | 0.0 | 0.00 | 0.00 | 0.00 | 54 | 1016.2 |
| 20260502100331 | 48 | 141 | 0.0 | 0.0 | 0.00 | 0.00 | 0.00 | 53 | 1016.1 |
| 20260502091304 | 49 | 149 | 0.0 | 0.0 | 0.00 | 0.00 | 0.00 | 45 | 1016.5 |
| 20260502090801 | 50 | 150 | 0.0 | 0.0 | 0.00 | 0.00 | 0.00 | 46 | 1016.8 |
| 20260502090258 | 50 | 156 | 0.0 | 0.0 | 0.00 | 0.00 | 0.00 | 45 | 1016.6 |
| 20260502071159 | 54 | 146 | 0.0 | 0.0 | 0.00 | 0.00 | 0.00 | 39 | 1017.3 |
| 20260502070657 | 54 | 146 | 0.0 | 0.0 | 0.00 | 0.00 | 0.00 | 37 | 1017.3 |
| 20260502070154 | 55 | 153 | 0.0 | 0.0 | 0.00 | 0.00 | 0.00 | 36 | 1017.3 |
| 20260502065653 | 54 | 162 | 0.0 | 0.0 | 0.00 | 0.00 | 0.00 | 39 | 1017.4 |
| 20260502065150 | 54 | 143 | 0.0 | 0.0 | 0.00 | 0.00 | 0.00 | 41 | 1017.1 |
| 20260502064649 | 55 | 142 | 0.0 | 0.0 | 0.00 | 0.00 | 0.00 | 39 | 1017.2 |
| 20260502064145 | 55 | 142 | 0.0 | 0.0 | 0.00 | 0.00 | 0.00 | 39 | 1017.3 |
| 20260502063643 | 55 | 143 | 0.0 | 0.0 | 0.00 | 0.00 | 0.00 | 37 | 1017.1 |
| 20260502063141 | 55 | 143 | 0.0 | 0.0 | 0.00 | 0.00 | 0.00 | 35 | 1016.9 |
| 20260502062637 | 56 | 144 | 0.0 | 0.0 | 0.00 | 0.00 | 0.00 | 36 | 1017.1 |
| 20260502062135 | 56 | 144 | 0.0 | 0.0 | 0.00 | 0.00 | 0.00 | 34 | 1017.1 |
| 20260502061633 | 57 | 144 | 0.0 | 0.0 | 0.00 | 0.00 | 0.00 | 32 | 1016.9 |
| 20260502061131 | 57 | 149 | 0.0 | 0.0 | 0.00 | 0.00 | 0.00 | 31 | 1017.1 |
| 20260502060630 | 58 | 151 | 0.0 | 0.0 | 0.00 | 0.00 | 0.00 | 31 | 1017.1 |
| 20260502060127 | 59 | 155 | 0.0 | 0.0 | 0.00 | 0.00 | 0.00 | 29 | 1017.0 |
| 20260502055625 | 59 | 155 | 0.0 | 0.0 | 0.00 | 0.00 | 0.00 | 29 | 1017.2 |
| 20260502055123 | 60 | 152 | 0.0 | 0.0 | 0.00 | 0.00 | 0.00 | 27 | 1016.9 |
| 20260502054622 | 60 | 154 | 0.0 | 0.0 | 0.00 | 0.00 | 0.00 | 25 | 1016.9 |
| 20260502054119 | 60 | 158 | 0.0 | 0.0 | 0.00 | 0.00 | 0.00 | 26 | 1017.2 |
| 20260502053616 | 61 | 148 | 0.0 | 0.0 | 0.00 | 0.00 | 0.00 | 25 | 1017.2 |
| 20260502053113 | 61 | 153 | 0.0 | 0.0 | 0.00 | 0.00 | 0.00 | 24 | 1017.1 |
| 20260502052611 | 61 | 155 | 0.0 | 0.0 | 0.00 | 0.00 | 0.00 | 24 | 1017.1 |
| 20260502052109 | 62 | 161 | 0.0 | 0.0 | 0.00 | 0.00 | 0.00 | 25 | 1017.1 |
| 20260502051607 | 62 | 157 | 0.0 | 0.0 | 0.00 | 0.00 | 0.00 | 23 | 1017.1 |
| 20260502051105 | 63 | 155 | 0.0 | 0.0 | 0.00 | 0.00 | 0.00 | 23 | 1017.1 |
| 20260502050600 | 63 | 165 | 0.0 | 0.0 | 0.00 | 0.00 | 0.00 | 22 | 1017.1 |
| 20260502050057 | 63 | 161 | 0.0 | 0.0 | 0.00 | 0.00 | 0.00 | 21 | 1017.0 |
| 20260502045554 | 63 | 170 | 0.0 | 0.0 | 0.00 | 0.00 | 0.00 | 22 | 1017.2 |
| 20260502045051 | 63 | 167 | 0.0 | 0.0 | 0.00 | 0.00 | 0.00 | 20 | 1017.0 |
| 20260502044548 | 63 | 160 | 0.0 | 0.0 | 0.00 | 0.00 | 0.00 | 20 | 1016.9 |
| 20260502044044 | 62 | 161 | 0.0 | 0.0 | 0.00 | 0.00 | 0.00 | 20 | 1016.9 |
| 20260502043542 | 63 | 144 | 0.0 | 0.0 | 0.00 | 0.00 | 0.00 | 21 | 1016.9 |
| 20260502043038 | 63 | 146 | 0.0 | 0.0 | 0.00 | 0.00 | 0.00 | 20 | 1016.9 |
| 20260502042533 | 63 | 153 | 0.0 | 0.0 | 0.00 | 0.00 | 0.00 | 21 | 1017.0 |
| 20260502042031 | 64 | 148 | 0.0 | 0.0 | 0.00 | 0.00 | 0.00 | 21 | 1017.0 |
| 20260502041529 | 64 | 153 | 0.0 | 0.0 | 0.00 | 0.00 | 0.00 | 19 | 1016.6 |
| 20260502041025 | 64 | 153 | 0.0 | 0.0 | 0.00 | 0.00 | 0.00 | 20 | 1016.8 |
| 20260502040522 | 64 | 91 | 0.0 | 0.0 | 0.00 | 0.00 | 0.00 | 19 | 1016.5 |